createdAt,value
2023-11-27T00:00:39.679Z,0.60
2023-11-27T00:03:08.330Z,0.60
2023-11-27T00:05:35.405Z,0.70
2023-11-27T00:08:02.536Z,0.80
2023-11-27T00:10:29.452Z,0.70
2023-11-27T00:13:00.779Z,0.70
2023-11-27T00:15:28.603Z,0.70
2023-11-27T00:17:56.106Z,0.70
2023-11-27T00:20:23.658Z,0.70
2023-11-27T00:22:50.846Z,0.70
2023-11-27T00:25:17.870Z,0.70
2023-11-27T00:27:44.924Z,0.70
2023-11-27T00:30:13.020Z,0.70
2023-11-27T00:32:40.235Z,0.60
2023-11-27T00:35:07.734Z,0.60
2023-11-27T00:37:34.859Z,0.70
2023-11-27T00:40:01.838Z,0.70
2023-11-27T00:42:28.792Z,0.70
2023-11-27T00:44:55.820Z,0.60
2023-11-27T00:47:22.751Z,0.60
2023-11-27T00:49:49.993Z,0.70
2023-11-27T00:52:16.940Z,0.60
2023-11-27T00:54:44.640Z,0.60
2023-11-27T00:57:11.853Z,0.60
2023-11-27T00:59:42.046Z,0.60
2023-11-27T01:02:09.772Z,0.70
2023-11-27T01:04:40.549Z,0.70
2023-11-27T01:07:08.103Z,0.70
2023-11-27T01:09:37.187Z,0.70
2023-11-27T01:12:04.863Z,0.70
2023-11-27T01:14:32.266Z,0.70
2023-11-27T01:16:59.421Z,0.70
2023-11-27T01:19:26.350Z,0.70
2023-11-27T01:21:56.031Z,0.70
2023-11-27T01:24:24.342Z,0.70
2023-11-27T01:26:53.411Z,0.70
2023-11-27T01:29:23.158Z,0.70
2023-11-27T01:31:50.508Z,0.80
2023-11-27T01:34:17.906Z,0.90
2023-11-27T01:36:45.329Z,0.90
2023-11-27T01:39:12.331Z,0.90
2023-11-27T01:41:40.133Z,0.90
2023-11-27T01:44:07.331Z,0.90
2023-11-27T01:46:34.739Z,0.90
2023-11-27T01:49:02.219Z,0.90
2023-11-27T01:51:30.349Z,0.90
2023-11-27T01:54:01.608Z,0.90
2023-11-27T01:56:30.736Z,0.90
2023-11-27T01:58:59.430Z,0.90
2023-11-27T02:01:27.884Z,1.00
2023-11-27T02:03:55.970Z,1.00
2023-11-27T02:06:23.079Z,1.00
2023-11-27T02:08:50.010Z,1.00
2023-11-27T02:11:20.104Z,1.00
2023-11-27T02:13:47.499Z,1.00
2023-11-27T02:16:14.943Z,1.00
2023-11-27T02:18:41.928Z,1.00
2023-11-27T02:21:09.921Z,1.00
2023-11-27T02:23:37.571Z,1.10
2023-11-27T02:26:08.281Z,1.10
2023-11-27T02:28:35.215Z,1.10
2023-11-27T02:31:02.828Z,1.20
2023-11-27T02:33:29.874Z,1.20
2023-11-27T02:35:56.780Z,1.10
2023-11-27T02:38:23.805Z,1.10
2023-11-27T02:40:52.256Z,1.10
2023-11-27T02:43:19.584Z,1.20
2023-11-27T02:45:46.941Z,1.20
2023-11-27T02:48:14.217Z,1.30
2023-11-27T02:50:41.189Z,1.30
2023-11-27T02:53:08.125Z,1.30
2023-11-27T02:55:35.323Z,1.40
2023-11-27T02:58:02.710Z,1.40
2023-11-27T03:00:29.807Z,1.40
2023-11-27T03:02:56.726Z,1.40
2023-11-27T03:05:23.668Z,1.40
2023-11-27T03:07:50.575Z,1.40
2023-11-27T03:10:18.544Z,1.40
2023-11-27T03:12:45.821Z,1.40
2023-11-27T03:15:12.963Z,1.40
2023-11-27T03:17:42.403Z,1.40
2023-11-27T03:20:12.388Z,1.50
2023-11-27T03:22:40.414Z,1.50
2023-11-27T03:25:07.607Z,1.50
2023-11-27T03:27:34.614Z,1.50
2023-11-27T03:30:04.858Z,1.50
2023-11-27T03:32:33.363Z,1.50
2023-11-27T03:35:00.375Z,1.60
2023-11-27T03:37:27.364Z,1.60
2023-11-27T03:39:54.321Z,1.50
2023-11-27T03:42:21.242Z,1.60
2023-11-27T03:44:48.148Z,1.50
2023-11-27T03:47:15.034Z,1.60
2023-11-27T03:49:41.953Z,1.60
2023-11-27T03:52:09.064Z,1.60
2023-11-27T03:54:36.110Z,1.60
2023-11-27T03:57:03.123Z,1.60
2023-11-27T03:59:30.241Z,1.70
2023-11-27T04:01:57.379Z,1.60
2023-11-27T04:04:24.475Z,1.60
2023-11-27T04:06:51.383Z,1.60
2023-11-27T04:09:22.275Z,1.70
2023-11-27T04:11:53.221Z,1.70
2023-11-27T04:14:20.148Z,1.70
2023-11-27T04:16:47.861Z,1.70
2023-11-27T04:19:14.982Z,1.70
2023-11-27T04:21:41.952Z,1.70
2023-11-27T04:24:08.859Z,1.70
2023-11-27T04:26:35.860Z,1.70
2023-11-27T04:29:03.740Z,1.70
2023-11-27T04:31:30.788Z,1.70
2023-11-27T04:33:57.792Z,1.80
2023-11-27T04:36:24.818Z,1.80
2023-11-27T04:38:52.086Z,1.80
2023-11-27T04:41:20.824Z,1.80
2023-11-27T04:43:47.937Z,1.80
2023-11-27T04:46:15.082Z,1.80
2023-11-27T04:48:42.067Z,1.80
2023-11-27T04:51:09.600Z,1.80
2023-11-27T04:53:37.176Z,1.90
2023-11-27T04:56:04.426Z,1.90
2023-11-27T04:58:31.389Z,1.90
2023-11-27T05:00:59.998Z,1.80
2023-11-27T05:03:28.427Z,1.80
2023-11-27T05:05:59.794Z,1.80
2023-11-27T05:08:27.306Z,1.80
2023-11-27T05:10:55.410Z,1.80
2023-11-27T05:13:22.750Z,1.80
2023-11-27T05:15:49.935Z,1.90
2023-11-27T05:18:17.027Z,1.90
2023-11-27T05:20:43.997Z,1.90
2023-11-27T05:23:10.920Z,2.00
2023-11-27T05:25:37.960Z,2.00
2023-11-27T05:28:05.515Z,2.00
2023-11-27T05:30:32.857Z,2.00
2023-11-27T05:33:00.062Z,2.00
2023-11-27T05:35:27.489Z,2.10
2023-11-27T05:37:54.786Z,2.00
2023-11-27T05:40:22.398Z,2.10
2023-11-27T05:42:49.876Z,2.10
2023-11-27T05:45:16.996Z,2.10
2023-11-27T05:47:44.500Z,2.10
2023-11-27T05:50:14.112Z,2.10
2023-11-27T05:52:41.549Z,2.00
2023-11-27T05:55:09.159Z,2.10
2023-11-27T05:57:36.999Z,2.10
2023-11-27T06:00:04.739Z,2.10
2023-11-27T06:02:31.975Z,2.20
2023-11-27T06:04:58.923Z,2.20
2023-11-27T06:07:26.077Z,2.20
2023-11-27T06:09:52.996Z,2.20
2023-11-27T06:12:20.375Z,2.20
2023-11-27T06:14:47.228Z,2.30
2023-11-27T06:17:14.159Z,2.30
2023-11-27T06:19:41.180Z,2.30
2023-11-27T06:22:08.173Z,2.30
2023-11-27T06:24:35.448Z,2.30
2023-11-27T06:27:02.393Z,2.20
2023-11-27T06:29:29.323Z,2.20
2023-11-27T06:31:56.517Z,2.20
2023-11-27T06:34:23.581Z,2.20
2023-11-27T06:36:50.491Z,2.20
2023-11-27T06:39:17.947Z,2.30
2023-11-27T06:41:44.812Z,2.30
2023-11-27T06:44:15.133Z,2.30
2023-11-27T06:46:42.623Z,2.30
2023-11-27T06:49:10.556Z,2.30
2023-11-27T06:51:37.460Z,2.30
2023-11-27T06:54:05.120Z,2.30
2023-11-27T06:56:34.765Z,2.30
2023-11-27T06:59:03.198Z,2.50
2023-11-27T07:01:30.489Z,2.30
2023-11-27T07:04:01.300Z,2.30
2023-11-27T07:06:28.779Z,2.20
2023-11-27T07:08:55.848Z,2.20
2023-11-27T07:11:26.344Z,2.20
2023-11-27T07:13:53.459Z,2.20
2023-11-27T07:16:20.554Z,2.20
2023-11-27T07:18:47.795Z,2.20
2023-11-27T07:21:15.153Z,2.20
2023-11-27T07:23:42.576Z,2.20
2023-11-27T07:26:09.759Z,2.30
2023-11-27T07:28:39.839Z,2.40
2023-11-27T07:31:06.934Z,2.30
2023-11-27T07:33:35.370Z,2.40
2023-11-27T07:36:02.316Z,2.50
2023-11-27T07:38:29.577Z,2.50
2023-11-27T07:40:57.467Z,2.50
2023-11-27T07:43:24.561Z,2.50
2023-11-27T07:45:51.475Z,2.50
2023-11-27T07:48:19.823Z,2.50
2023-11-27T07:50:47.150Z,2.50
2023-11-27T07:53:14.047Z,2.50
2023-11-27T07:55:41.583Z,2.60
2023-11-27T07:58:08.780Z,2.60
2023-11-27T08:00:35.833Z,2.60
2023-11-27T08:03:02.734Z,2.70
2023-11-27T08:05:30.791Z,2.60
2023-11-27T08:07:57.927Z,2.60
2023-11-27T08:10:25.171Z,2.80
2023-11-27T08:12:53.093Z,2.70
2023-11-27T08:15:20.386Z,2.60
2023-11-27T08:17:50.803Z,2.70
2023-11-27T08:20:18.467Z,2.70
2023-11-27T08:22:46.081Z,2.80
2023-11-27T08:25:16.083Z,2.80
2023-11-27T08:27:44.188Z,2.80
2023-11-27T08:30:12.102Z,2.90
2023-11-27T08:32:40.818Z,2.90
2023-11-27T08:35:09.427Z,2.90
2023-11-27T08:37:40.644Z,2.90
2023-11-27T08:40:11.207Z,2.90
2023-11-27T08:42:39.928Z,2.90
2023-11-27T08:45:19.886Z,3.00
2023-11-27T08:47:52.631Z,3.00
2023-11-27T08:50:26.568Z,3.10
2023-11-27T08:52:59.884Z,3.10
2023-11-27T08:55:32.837Z,3.10
2023-11-27T08:58:05.012Z,3.20
2023-11-27T09:00:32.455Z,3.30
2023-11-27T09:03:01.515Z,3.40
2023-11-27T09:05:33.402Z,3.40
2023-11-27T09:08:06.363Z,3.50
2023-11-27T09:10:34.714Z,3.90
2023-11-27T09:13:01.919Z,3.70
2023-11-27T09:15:29.015Z,3.80
2023-11-27T09:17:57.179Z,3.90
2023-11-27T09:20:24.314Z,3.90
2023-11-27T09:25:18.542Z,4.00
2023-11-27T09:27:47.424Z,4.00
2023-11-27T09:30:14.535Z,3.90
2023-11-27T09:32:41.613Z,3.90
2023-11-27T09:35:11.709Z,3.80
2023-11-27T09:37:40.358Z,3.90
2023-11-27T09:40:11.985Z,3.90
2023-11-27T09:42:46.265Z,3.90
2023-11-27T09:45:18.199Z,4.00
2023-11-27T09:47:50.161Z,3.80
2023-11-27T09:50:19.905Z,3.80
2023-11-27T09:52:58.321Z,3.90
2023-11-27T09:55:27.587Z,3.90
2023-11-27T09:57:54.748Z,4.00
2023-11-27T10:00:22.504Z,4.00
2023-11-27T10:02:51.160Z,4.10
2023-11-27T10:05:20.097Z,4.10
2023-11-27T10:07:54.248Z,4.20
2023-11-27T10:10:29.603Z,4.30
2023-11-27T10:13:09.225Z,4.30
2023-11-27T10:15:39.755Z,4.40
2023-11-27T10:18:10.160Z,4.40
2023-11-27T10:20:42.043Z,4.40
2023-11-27T10:23:12.658Z,4.40
2023-11-27T10:25:39.640Z,4.40
2023-11-27T10:28:07.651Z,4.40
2023-11-27T10:30:34.882Z,4.40
2023-11-27T10:33:02.955Z,4.40
2023-11-27T10:35:34.299Z,4.50
2023-11-27T10:38:01.669Z,4.60
2023-11-27T10:40:28.986Z,4.60
2023-11-27T10:43:01.107Z,4.60
2023-11-27T10:45:29.495Z,4.60
2023-11-27T10:47:58.162Z,4.70
2023-11-27T10:50:27.212Z,4.70
2023-11-27T10:52:57.085Z,4.70
2023-11-27T10:55:26.108Z,4.70
2023-11-27T10:57:55.641Z,4.70
2023-11-27T11:00:34.312Z,4.70
2023-11-27T11:03:08.588Z,4.80
2023-11-27T11:05:46.866Z,4.80
2023-11-27T11:08:13.950Z,4.80
2023-11-27T11:10:43.033Z,4.80
2023-11-27T11:13:16.363Z,4.80
2023-11-27T11:16:06.749Z,4.80
2023-11-27T11:18:53.545Z,4.80
2023-11-27T11:21:41.164Z,4.80
2023-11-27T11:25:02.142Z,4.80
2023-11-27T11:27:42.629Z,4.80
2023-11-27T11:30:14.457Z,4.90
2023-11-27T11:32:41.820Z,4.90
2023-11-27T11:35:12.604Z,4.90
2023-11-27T11:37:51.036Z,5.00
2023-11-27T11:40:19.317Z,5.00
2023-11-27T11:42:48.980Z,5.00
2023-11-27T11:45:20.668Z,5.10
2023-11-27T11:48:14.308Z,5.20
2023-11-27T11:50:42.688Z,5.20
2023-11-27T11:53:15.369Z,5.20
2023-11-27T11:55:43.024Z,5.20
2023-11-27T11:58:29.715Z,5.30
2023-11-27T12:01:06.830Z,5.40
2023-11-27T12:03:35.121Z,5.40
2023-11-27T12:06:04.896Z,5.50
2023-11-27T12:08:33.069Z,5.50
2023-11-27T12:11:02.375Z,5.50
2023-11-27T12:13:36.396Z,5.50
2023-11-27T12:16:15.462Z,5.50
2023-11-27T12:18:49.072Z,5.50
2023-11-27T12:21:24.728Z,5.60
2023-11-27T12:23:53.112Z,5.70
2023-11-27T12:26:26.530Z,5.80
2023-11-27T12:28:54.966Z,5.80
2023-11-27T12:31:23.820Z,5.90
2023-11-27T12:33:52.624Z,6.00
2023-11-27T12:36:22.915Z,6.00
2023-11-27T12:38:54.809Z,6.00
2023-11-27T12:41:35.892Z,6.10
2023-11-27T12:44:17.502Z,6.20
2023-11-27T12:46:58.514Z,6.20
2023-11-27T12:49:29.670Z,6.20
2023-11-27T12:52:08.082Z,6.20
2023-11-27T12:54:38.733Z,6.20
2023-11-27T12:57:11.394Z,6.30
2023-11-27T12:59:43.827Z,6.30
2023-11-27T13:02:10.910Z,6.30
2023-11-27T13:04:39.454Z,6.30
2023-11-27T13:07:10.890Z,6.30
2023-11-27T13:09:40.843Z,6.30
2023-11-27T13:12:18.698Z,6.40
2023-11-27T13:14:46.240Z,6.40
2023-11-27T13:17:21.353Z,6.40
2023-11-27T13:19:52.499Z,6.40
2023-11-27T13:22:19.661Z,6.40
2023-11-27T13:24:48.335Z,6.50
2023-11-27T13:27:17.627Z,6.50
2023-11-27T13:29:48.121Z,6.40
2023-11-27T13:32:16.373Z,6.40
2023-11-27T13:34:46.120Z,6.40
2023-11-27T13:37:13.337Z,6.30
2023-11-27T13:39:42.495Z,6.30
2023-11-27T13:42:10.170Z,6.30
2023-11-27T13:44:38.524Z,6.30
2023-11-27T13:47:06.488Z,6.30
2023-11-27T13:49:35.331Z,6.30
2023-11-27T13:54:33.867Z,6.20
2023-11-27T13:57:00.961Z,6.20
2023-11-27T13:59:36.467Z,6.20
2023-11-27T14:02:11.591Z,6.20
2023-11-27T14:04:40.412Z,6.10
2023-11-27T14:07:09.140Z,6.10
2023-11-27T14:09:51.573Z,6.10
2023-11-27T14:12:27.640Z,6.10
2023-11-27T14:15:10.213Z,6.00
2023-11-27T14:17:40.196Z,6.00
2023-11-27T14:20:26.567Z,6.00
2023-11-27T14:23:12.117Z,5.90
2023-11-27T14:25:47.984Z,5.90
2023-11-27T14:28:31.858Z,5.80
2023-11-27T14:30:58.965Z,5.80
2023-11-27T14:33:26.719Z,5.70
2023-11-27T14:35:54.270Z,5.60
2023-11-27T14:38:26.872Z,5.60
2023-11-27T14:40:54.121Z,5.60
2023-11-27T14:43:21.630Z,5.50
2023-11-27T14:45:50.670Z,5.40
2023-11-27T14:48:21.217Z,5.30
2023-11-27T14:50:48.351Z,5.30
2023-11-27T14:53:15.446Z,5.20
2023-11-27T14:55:42.637Z,5.10
2023-11-27T14:58:14.178Z,5.00
2023-11-27T15:00:45.098Z,4.90
2023-11-27T15:03:14.176Z,4.80
2023-11-27T15:05:45.592Z,4.80
2023-11-27T15:08:15.940Z,4.70
2023-11-27T15:10:44.133Z,4.70
2023-11-27T15:13:11.064Z,4.70
2023-11-27T15:15:38.163Z,4.60
2023-11-27T15:18:07.450Z,4.60
2023-11-27T15:20:35.666Z,4.60
2023-11-27T15:23:05.134Z,4.50
2023-11-27T15:25:34.415Z,4.50
2023-11-27T15:28:01.887Z,4.40
2023-11-27T15:30:31.664Z,4.40
2023-11-27T15:33:01.346Z,4.40
2023-11-27T15:35:31.317Z,4.40
2023-11-27T15:37:59.142Z,4.30
2023-11-27T15:40:29.898Z,4.30
2023-11-27T15:42:57.433Z,4.30
2023-11-27T15:45:28.277Z,4.20
2023-11-27T15:47:57.872Z,4.20
2023-11-27T15:50:31.489Z,4.20
2023-11-27T15:53:01.863Z,4.20
2023-11-27T15:55:30.532Z,4.20
2023-11-27T15:57:57.773Z,4.10
2023-11-27T16:00:26.772Z,4.10
2023-11-27T16:02:56.515Z,4.00
2023-11-27T16:05:24.287Z,4.00
2023-11-27T16:07:51.629Z,4.00
2023-11-27T16:10:22.851Z,3.90
2023-11-27T16:12:51.167Z,3.90
2023-11-27T16:15:19.632Z,3.80
2023-11-27T16:17:56.772Z,3.80
2023-11-27T16:20:27.884Z,3.70
2023-11-27T16:22:55.428Z,3.60
2023-11-27T16:25:23.401Z,3.50
2023-11-27T16:27:52.613Z,3.50
2023-11-27T16:30:22.856Z,3.40
2023-11-27T16:32:51.262Z,3.30
2023-11-27T16:35:24.638Z,3.30
2023-11-27T16:37:52.666Z,3.30
2023-11-27T16:40:21.532Z,3.30
2023-11-27T16:42:51.818Z,3.30
2023-11-27T16:45:19.997Z,3.30
2023-11-27T16:47:47.664Z,3.30
2023-11-27T16:50:15.648Z,3.20
2023-11-27T16:52:48.227Z,3.10
2023-11-27T16:55:19.458Z,3.00
2023-11-27T16:57:51.240Z,3.00
2023-11-27T17:00:30.673Z,2.90
2023-11-27T17:03:01.452Z,2.80
2023-11-27T17:05:30.033Z,2.80
2023-11-27T17:07:57.663Z,2.70
2023-11-27T17:10:28.707Z,2.60
2023-11-27T17:12:57.094Z,2.50
2023-11-27T17:15:25.888Z,2.50
2023-11-27T17:17:53.444Z,2.40
2023-11-27T17:20:27.463Z,2.40
2023-11-27T17:23:04.400Z,2.30
2023-11-27T17:25:37.730Z,2.30
2023-11-27T17:28:11.651Z,2.20
2023-11-27T17:30:39.956Z,2.20
2023-11-27T17:33:08.372Z,2.20
2023-11-27T17:35:37.956Z,2.20
2023-11-27T17:38:07.377Z,2.20
2023-11-27T17:40:34.846Z,2.20
2023-11-27T17:43:02.300Z,2.20
2023-11-27T17:45:29.603Z,2.20
2023-11-27T17:48:00.618Z,2.20
2023-11-27T17:50:30.593Z,2.30
2023-11-27T17:52:58.288Z,2.30
2023-11-27T17:55:38.858Z,2.30
2023-11-27T17:58:12.090Z,2.30
2023-11-27T18:00:39.280Z,2.30
2023-11-27T18:03:06.391Z,2.30
2023-11-27T18:05:33.429Z,2.30
2023-11-27T18:08:04.203Z,2.30
2023-11-27T18:10:34.198Z,2.30
2023-11-27T18:13:05.652Z,2.30
2023-11-27T18:15:34.032Z,2.40
2023-11-27T18:18:01.524Z,2.40
2023-11-27T18:20:30.327Z,2.40
2023-11-27T18:22:57.648Z,2.50
2023-11-27T18:25:25.368Z,2.50
2023-11-27T18:27:56.908Z,2.50
2023-11-27T18:30:24.752Z,2.60
2023-11-27T18:32:52.785Z,2.60
2023-11-27T18:35:21.361Z,2.60
2023-11-27T18:37:49.730Z,2.70
2023-11-27T18:40:19.687Z,2.70
2023-11-27T18:42:52.312Z,2.80
2023-11-27T18:45:24.610Z,2.80
2023-11-27T18:47:53.461Z,2.80
2023-11-27T18:50:21.132Z,2.90
2023-11-27T18:52:49.738Z,2.90
2023-11-27T18:55:17.642Z,2.90
2023-11-27T18:57:45.988Z,2.90
2023-11-27T19:00:16.576Z,2.90
2023-11-27T19:02:45.184Z,3.00
2023-11-27T19:05:14.139Z,3.00
2023-11-27T19:07:42.771Z,3.00
2023-11-27T19:10:11.654Z,3.10
2023-11-27T19:12:41.762Z,3.10
2023-11-27T19:15:10.508Z,3.10
2023-11-27T19:17:39.106Z,3.10
2023-11-27T19:20:12.407Z,3.10
2023-11-27T19:22:41.267Z,3.10
2023-11-27T19:25:14.303Z,3.10
2023-11-27T19:27:43.118Z,3.20
2023-11-27T19:30:12.476Z,3.20
2023-11-27T19:32:42.042Z,3.10
2023-11-27T19:35:11.825Z,3.20
2023-11-27T19:37:39.713Z,3.20
2023-11-27T19:40:09.777Z,3.20
2023-11-27T19:42:38.240Z,3.20
2023-11-27T19:45:09.991Z,3.20
2023-11-27T19:47:39.836Z,3.20
2023-11-27T19:50:10.308Z,3.20
2023-11-27T19:52:38.793Z,3.30
2023-11-27T19:55:08.182Z,3.30
2023-11-27T19:57:36.607Z,3.30
2023-11-27T20:00:05.102Z,3.20
2023-11-27T20:02:33.152Z,3.20
2023-11-27T20:05:01.168Z,3.30
2023-11-27T20:07:29.850Z,3.20
2023-11-27T20:09:58.278Z,3.30
2023-11-27T20:12:26.082Z,3.30
2023-11-27T20:14:54.656Z,3.20
2023-11-27T20:17:22.278Z,3.20
2023-11-27T20:19:52.334Z,3.20
2023-11-27T20:22:19.516Z,3.10
2023-11-27T20:24:47.373Z,3.20
2023-11-27T20:27:14.798Z,3.20
2023-11-27T20:29:46.009Z,3.20
2023-11-27T20:32:15.661Z,3.20
2023-11-27T20:34:43.726Z,3.20
2023-11-27T20:37:10.824Z,3.10
2023-11-27T20:39:38.263Z,3.20
2023-11-27T20:42:05.495Z,3.20
2023-11-27T20:44:35.325Z,3.20
2023-11-27T20:47:06.682Z,3.20
2023-11-27T20:49:34.147Z,3.20
2023-11-27T20:52:01.159Z,3.20
2023-11-27T20:54:28.487Z,3.10
2023-11-27T20:56:55.491Z,3.10
2023-11-27T20:59:22.822Z,3.10
2023-11-27T21:01:49.798Z,3.10
2023-11-27T21:04:16.729Z,3.20
2023-11-27T21:06:43.678Z,3.20
2023-11-27T21:09:11.827Z,3.20
2023-11-27T21:11:39.527Z,3.20
2023-11-27T21:14:07.560Z,3.20
2023-11-27T21:16:37.489Z,3.20
2023-11-27T21:19:07.507Z,3.20
2023-11-27T21:21:34.752Z,3.30
2023-11-27T21:24:04.019Z,3.20
2023-11-27T21:26:30.931Z,3.20
2023-11-27T21:28:57.930Z,3.20
2023-11-27T21:31:25.408Z,3.20
2023-11-27T21:33:52.432Z,3.20
2023-11-27T21:36:19.355Z,3.20
2023-11-27T21:38:46.278Z,3.20
2023-11-27T21:41:13.262Z,3.20
2023-11-27T21:43:40.211Z,3.20
2023-11-27T21:46:07.747Z,3.20
2023-11-27T21:48:34.717Z,3.20
2023-11-27T21:51:01.634Z,3.20
2023-11-27T21:53:28.508Z,3.30
2023-11-27T21:55:55.653Z,3.30
2023-11-27T21:58:22.719Z,3.30
2023-11-27T22:00:49.675Z,3.40
2023-11-27T22:03:17.500Z,3.40
2023-11-27T22:05:44.689Z,3.40
2023-11-27T22:08:11.642Z,3.40
2023-11-27T22:10:38.550Z,3.40
2023-11-27T22:13:05.442Z,3.40
2023-11-27T22:15:32.328Z,3.30
2023-11-27T22:18:00.372Z,3.30
2023-11-27T22:20:27.433Z,3.20
2023-11-27T22:22:55.569Z,3.20
2023-11-27T22:25:22.651Z,3.20
2023-11-27T22:27:50.260Z,3.20
2023-11-27T22:30:17.153Z,3.20
2023-11-27T22:32:44.240Z,3.20
2023-11-27T22:35:11.531Z,3.20
2023-11-27T22:37:40.042Z,3.20
2023-11-27T22:40:08.013Z,3.20
2023-11-27T22:42:35.832Z,3.20
2023-11-27T22:45:03.021Z,3.10
2023-11-27T22:47:30.447Z,3.10
2023-11-27T22:49:57.373Z,3.10
2023-11-27T22:52:24.368Z,3.20
2023-11-27T22:54:51.630Z,3.10
2023-11-27T22:57:19.255Z,3.10
2023-11-27T22:59:47.047Z,3.10
2023-11-27T23:02:14.082Z,3.10
2023-11-27T23:04:42.210Z,3.10
2023-11-27T23:07:09.136Z,3.10
2023-11-27T23:09:36.270Z,3.10
2023-11-27T23:12:03.473Z,3.10
2023-11-27T23:14:30.408Z,3.10
2023-11-27T23:16:58.002Z,3.10
2023-11-27T23:19:24.954Z,3.20
2023-11-27T23:21:52.536Z,3.20
2023-11-27T23:24:26.474Z,3.20
2023-11-27T23:26:55.274Z,3.30
2023-11-27T23:29:23.290Z,3.30
2023-11-27T23:31:53.316Z,3.30
2023-11-27T23:34:22.789Z,3.30
2023-11-27T23:36:49.717Z,3.30
2023-11-27T23:39:16.665Z,3.30
2023-11-27T23:41:43.556Z,3.40
2023-11-27T23:44:10.422Z,3.40
2023-11-27T23:46:37.529Z,3.30
2023-11-27T23:49:04.669Z,3.30
2023-11-27T23:51:31.653Z,3.30
2023-11-27T23:53:58.919Z,3.40
2023-11-27T23:56:25.999Z,3.40
2023-11-27T23:58:52.918Z,3.40
